Wednesday, November 22, 2017, 12:54 PM GMT
Back to Local

CWSS, St. Stephen, N. B.

Location: , , Canada Lat: 45.217
Local Time: 12:54 PM GMT (12:54 GMT) Lon: -67.25
Time Zone: GMT Elev: 85 ft

Show me the last for .
Show Decoded

2017-11-22 12:00 METAR CWSS 221200Z AUTO 00000KT M02/M03 RMK AO1 SOG 00 0008 SLP162 T10231028 =
2017-11-22 11:00 METAR CWSS 221100Z AUTO 00000KT M03/M03 RMK AO1 SOG 00 3010 SLP163 T10301034 =
2017-11-22 10:00 METAR CWSS 221000Z AUTO 00000KT M03/M03 RMK AO1 SOG 00 3002 SLP158 T10301034 =
2017-11-22 09:00 METAR CWSS 220900Z AUTO 00000KT M03/M04 RMK AO1 SOG 00 0000 SLP154 T10311035 =
2017-11-22 08:00 METAR CWSS 220800Z AUTO 00000KT M02/M02 RMK AO1 SOG 00 0001 SLP153 T10211015 =
2017-11-22 07:00 METAR CWSS 220700Z AUTO 00000KT M02/M02 RMK AO1 SOG 00 3004 SLP156 T10161021 =
2017-11-22 06:00 METAR CWSS 220600Z AUTO 00000KT M00/M01 RMK AO1 SOG 00 3003 SLP154 T10021008 =
2017-11-22 05:00 METAR CWSS 220500Z AUTO 03001KT 02/01 RMK AO1 SOG 00 1005 SLP152 T00180011 =
2017-11-22 04:00 METAR CWSS 220400Z AUTO 00000KT 02/01 RMK AO1 SOG 00 1007 SLP152 T00220013 =
2017-11-22 03:00 METAR CWSS 220300Z AUTO 00000KT 03/02 RMK AO1 SLP151 T00320016 53001 =
2017-11-22 02:00 METAR CWSS 220200Z AUTO 20003KT 08/05 RMK AO1 SOG 00 5002 SLP147 T00790053 =
2017-11-22 01:00 METAR CWSS 220100Z AUTO 17004KT 07/05 RMK AO1 SOG 00 8002 SLP145 T00740053 =
2017-11-22 00:00 METAR CWSS 220000Z AUTO 15003KT 01/M00 RMK AO1 SLP150 T00141002 53003 =
2017-11-21 23:00 METAR CWSS 212300Z AUTO 14004KT 05/02 RMK AO1 SOG 00 3003 SLP149 T00460015 =
2017-11-21 22:00 METAR CWSS 212200Z AUTO 15004KT 07/02 RMK AO1 SLP147 T00660021 56008 =
2017-11-21 21:00 METAR CWSS 212100Z AUTO 19004KT 06/02 RMK AO1 SOG 00 5021 SLP147 T00620024 =
2017-11-21 20:00 METAR CWSS 212000Z AUTO 10003KT 07/02 RMK AO1 SLP146 T00660019 58029 =
2017-11-21 19:00 METAR CWSS 211900Z AUTO 11004KT 05/M01 RMK AO1 SOG 00 8032 SLP155 T00451011 =
2017-11-21 18:00 METAR CWSS 211800Z AUTO 14007KT 02/M04 RMK AO1 SOG 00 6030 SLP168 T00221043 =
2017-11-21 17:00 METAR CWSS 211700Z AUTO 15007KT 02/M07 RMK AO1 SOG 00 8023 SLP175 T00231072 =
2017-11-21 16:00 METAR CWSS 211600Z AUTO 15002KT 01/M10 RMK AO1 SOG 00 8008 SLP187 T00061096 =
2017-11-21 15:00 METAR CWSS 211500Z AUTO 17004KT M02/M11 RMK AO1 SOG 00 3001 SLP198 T10221113 =
2017-11-21 14:00 METAR CWSS 211400Z AUTO 17002KT M05/M12 RMK AO1 SOG 00 2004 SLP198 T10461115 =
2017-11-21 13:00 METAR CWSS 211300Z AUTO 11002KT M08/M11 RMK AO1 SOG 01 0007 SLP195 T10751111 =

Support USWX by starting your Amazon purchase here.